createdAt,value
2022-12-25T00:02:02.151Z,14.43
2022-12-25T00:04:28.817Z,12.75
2022-12-25T00:06:56.045Z,15.55
2022-12-25T00:09:25.562Z,14.40
2022-12-25T00:11:52.318Z,14.25
2022-12-25T00:14:18.903Z,13.77
2022-12-25T00:16:45.682Z,12.98
2022-12-25T00:19:12.398Z,13.20
2022-12-25T00:21:39.068Z,13.07
2022-12-25T00:24:06.015Z,13.02
2022-12-25T00:26:32.646Z,12.45
2022-12-25T00:28:59.386Z,12.77
2022-12-25T00:31:26.494Z,13.35
2022-12-25T00:33:53.516Z,14.25
2022-12-25T00:36:22.003Z,12.23
2022-12-25T00:38:48.952Z,12.50
2022-12-25T00:41:18.278Z,12.30
2022-12-25T00:43:44.886Z,12.55
2022-12-25T00:46:12.799Z,11.75
2022-12-25T00:48:39.945Z,10.93
2022-12-25T00:51:08.549Z,11.35
2022-12-25T00:53:35.354Z,11.27
2022-12-25T00:56:04.721Z,10.43
2022-12-25T00:58:32.576Z,10.93
2022-12-25T01:00:59.659Z,11.23
2022-12-25T01:03:26.750Z,11.52
2022-12-25T01:06:01.752Z,10.55
2022-12-25T01:08:30.382Z,9.95
2022-12-25T01:11:15.270Z,10.13
2022-12-25T01:13:41.945Z,11.38
2022-12-25T01:16:10.267Z,9.85
2022-12-25T01:18:38.023Z,10.00
2022-12-25T01:21:08.616Z,10.32
2022-12-25T01:23:35.636Z,9.85
2022-12-25T01:26:06.303Z,9.05
2022-12-25T01:28:32.963Z,10.48
2022-12-25T01:30:59.578Z,11.20
2022-12-25T01:33:26.239Z,11.65
2022-12-25T01:35:52.957Z,9.63
2022-12-25T01:38:19.676Z,10.55
2022-12-25T01:40:46.358Z,10.35
2022-12-25T01:43:33.591Z,9.50
2022-12-25T01:46:00.440Z,10.02
2022-12-25T01:48:33.363Z,10.38
2022-12-25T01:51:05.303Z,9.43
2022-12-25T01:53:32.415Z,9.38
2022-12-25T01:56:01.762Z,8.25
2022-12-25T01:58:28.531Z,8.35
2022-12-25T02:00:55.325Z,9.00
2022-12-25T02:03:22.700Z,8.82
2022-12-25T02:05:49.399Z,9.20
2022-12-25T02:08:17.491Z,7.82
2022-12-25T02:10:44.790Z,8.63
2022-12-25T02:13:13.382Z,7.32
2022-12-25T02:16:00.311Z,7.43
2022-12-25T02:19:12.018Z,7.88
2022-12-25T02:21:59.761Z,7.35
2022-12-25T02:24:46.243Z,7.50
2022-12-25T02:28:01.641Z,7.97
2022-12-25T02:30:33.700Z,7.90
2022-12-25T02:33:21.850Z,7.53
2022-12-25T02:35:52.333Z,6.93
2022-12-25T02:38:25.419Z,7.53
2022-12-25T02:40:57.107Z,7.38
2022-12-25T02:43:55.278Z,6.53
2022-12-25T02:46:42.025Z,6.20
2022-12-25T02:49:47.421Z,5.47
2022-12-25T02:52:56.936Z,6.15
2022-12-25T02:55:47.610Z,5.00
2022-12-25T02:58:34.841Z,4.55
2022-12-25T03:01:24.198Z,4.32
2022-12-25T03:04:12.355Z,4.22
2022-12-25T03:06:43.967Z,4.15
2022-12-25T03:09:36.297Z,3.95
2022-12-25T03:12:30.451Z,4.05
2022-12-25T03:15:15.808Z,3.95
2022-12-25T03:17:42.541Z,3.35
2022-12-25T03:20:28.179Z,3.88
2022-12-25T03:23:13.235Z,3.40
2022-12-25T03:25:58.464Z,3.60
2022-12-25T03:28:25.182Z,3.55
2022-12-25T03:31:13.611Z,3.30
2022-12-25T03:34:06.437Z,2.90
2022-12-25T03:37:01.849Z,3.45
2022-12-25T03:39:54.534Z,3.40
2022-12-25T03:42:38.683Z,2.97
2022-12-25T03:45:28.107Z,3.15
2022-12-25T03:48:13.771Z,2.97
2022-12-25T03:51:05.172Z,3.42
2022-12-25T03:53:58.269Z,2.97
2022-12-25T03:56:44.303Z,3.00
2022-12-25T03:59:29.730Z,3.40
2022-12-25T04:02:14.949Z,3.83
2022-12-25T04:05:00.360Z,3.17
2022-12-25T04:07:45.522Z,3.25
2022-12-25T04:10:30.659Z,2.80
2022-12-25T04:13:15.880Z,3.50
2022-12-25T04:16:03.077Z,3.67
2022-12-25T04:18:48.348Z,3.17
2022-12-25T04:21:33.530Z,3.92
2022-12-25T04:24:18.920Z,3.22
2022-12-25T04:27:04.084Z,3.28
2022-12-25T04:29:49.145Z,3.58
2022-12-25T04:32:34.460Z,3.63
2022-12-25T04:35:19.608Z,3.05
2022-12-25T04:37:46.241Z,2.88
2022-12-25T04:40:12.979Z,3.28
2022-12-25T04:42:39.580Z,3.63
2022-12-25T04:45:06.672Z,3.47
2022-12-25T04:47:36.355Z,3.28
2022-12-25T04:50:03.671Z,3.55
2022-12-25T04:52:35.425Z,3.13
2022-12-25T04:55:02.099Z,3.72
2022-12-25T04:57:28.771Z,2.95
2022-12-25T04:59:55.427Z,2.97
2022-12-25T05:02:22.146Z,3.83
2022-12-25T05:04:52.110Z,3.85
2022-12-25T05:07:18.731Z,3.42
2022-12-25T05:09:45.396Z,3.80
2022-12-25T05:12:12.754Z,3.58
2022-12-25T05:14:40.027Z,4.20
2022-12-25T05:17:07.978Z,3.78
2022-12-25T05:19:34.879Z,3.78
2022-12-25T05:22:01.651Z,4.25
2022-12-25T05:24:28.539Z,4.25
2022-12-25T05:26:55.355Z,4.72
2022-12-25T05:29:21.999Z,5.47
2022-12-25T05:31:48.675Z,4.43
2022-12-25T05:34:15.311Z,4.38
2022-12-25T05:36:41.975Z,4.85
2022-12-25T05:39:08.631Z,4.35
2022-12-25T05:41:35.301Z,4.90
2022-12-25T05:44:01.987Z,4.30
2022-12-25T05:46:28.785Z,5.60
2022-12-25T05:48:55.736Z,7.82
2022-12-25T05:51:22.500Z,7.10
2022-12-25T05:53:49.201Z,7.55
2022-12-25T05:56:15.873Z,8.90
2022-12-25T05:58:42.674Z,8.77
2022-12-25T06:01:18.760Z,6.82
2022-12-25T06:03:45.605Z,8.48
2022-12-25T06:06:12.758Z,10.43
2022-12-25T06:08:39.516Z,11.43
2022-12-25T06:11:07.360Z,18.45
2022-12-25T06:13:35.021Z,12.48
2022-12-25T06:16:06.380Z,17.23
2022-12-25T06:18:36.480Z,18.80
2022-12-25T06:21:10.041Z,16.38
2022-12-25T06:23:37.824Z,14.75
2022-12-25T06:26:10.373Z,13.65
2022-12-25T06:28:37.123Z,10.70
2022-12-25T06:31:09.324Z,11.55
2022-12-25T06:33:36.535Z,8.90
2022-12-25T06:36:32.632Z,6.43
2022-12-25T06:39:02.586Z,7.43
2022-12-25T06:41:30.400Z,7.60
2022-12-25T06:43:58.890Z,6.50
2022-12-25T06:46:28.361Z,7.32
2022-12-25T06:48:55.167Z,5.97
2022-12-25T06:51:24.498Z,6.93
2022-12-25T06:53:52.157Z,6.80
2022-12-25T06:56:21.158Z,6.45
2022-12-25T06:58:53.522Z,7.25
2022-12-25T07:01:25.700Z,6.47
2022-12-25T07:03:55.496Z,8.52
2022-12-25T07:06:22.466Z,8.75
2022-12-25T07:08:49.125Z,8.13
2022-12-25T07:11:15.901Z,9.02
2022-12-25T07:13:42.526Z,9.43
2022-12-25T07:16:10.517Z,9.50
2022-12-25T07:18:37.410Z,8.88
2022-12-25T07:21:13.143Z,9.45
2022-12-25T07:23:39.946Z,9.50
2022-12-25T07:26:06.998Z,9.15
2022-12-25T07:28:34.307Z,8.10
2022-12-25T07:31:04.832Z,6.47
2022-12-25T07:33:32.007Z,7.38
2022-12-25T07:35:58.716Z,7.88
2022-12-25T07:38:25.666Z,7.57
2022-12-25T07:40:53.316Z,9.02
2022-12-25T07:43:20.591Z,8.88
2022-12-25T07:45:47.286Z,8.27
2022-12-25T07:48:16.813Z,8.68
2022-12-25T07:50:43.893Z,8.18
2022-12-25T07:53:10.552Z,7.80
2022-12-25T07:55:37.236Z,7.63
2022-12-25T07:58:03.871Z,7.43
2022-12-25T08:00:33.789Z,5.63
2022-12-25T08:03:00.804Z,5.30
2022-12-25T08:05:27.564Z,6.07
2022-12-25T08:07:57.532Z,5.35
2022-12-25T08:10:25.024Z,4.78
2022-12-25T08:12:52.105Z,5.85
2022-12-25T08:15:18.769Z,6.88
2022-12-25T08:17:45.413Z,6.97
2022-12-25T08:20:12.301Z,5.68
2022-12-25T08:22:38.922Z,6.75
2022-12-25T08:25:05.867Z,5.90
2022-12-25T08:27:34.299Z,6.93
2022-12-25T08:30:01.123Z,8.15
2022-12-25T08:32:27.876Z,20.98
2022-12-25T08:34:54.565Z,17.42
2022-12-25T08:37:21.219Z,15.48
2022-12-25T08:39:47.904Z,16.40
2022-12-25T08:42:17.067Z,12.77
2022-12-25T08:44:43.725Z,11.13
2022-12-25T08:47:10.456Z,9.57
2022-12-25T08:49:37.180Z,10.88
2022-12-25T08:52:03.910Z,12.35
2022-12-25T08:54:32.512Z,13.57
2022-12-25T08:57:03.046Z,9.52
2022-12-25T08:59:29.990Z,9.15
2022-12-25T09:01:56.820Z,7.93
2022-12-25T09:04:23.607Z,8.30
2022-12-25T09:06:51.115Z,9.90
2022-12-25T09:09:17.780Z,9.40
2022-12-25T09:11:44.413Z,9.60
2022-12-25T09:14:13.659Z,8.60
2022-12-25T09:16:40.297Z,9.75
2022-12-25T09:19:07.188Z,9.20
2022-12-25T09:21:33.866Z,8.50
2022-12-25T09:24:00.532Z,9.65
2022-12-25T09:26:27.212Z,9.73
2022-12-25T09:28:53.974Z,9.43
2022-12-25T09:31:22.298Z,9.23
2022-12-25T09:33:50.751Z,9.27
2022-12-25T09:36:17.731Z,9.25
2022-12-25T09:38:44.398Z,10.60
2022-12-25T09:41:22.601Z,11.75
2022-12-25T09:43:54.745Z,11.25
2022-12-25T09:46:33.098Z,9.68
2022-12-25T09:49:13.015Z,10.65
2022-12-25T09:51:40.781Z,11.60
2022-12-25T09:54:20.075Z,12.15
2022-12-25T09:56:46.788Z,14.50
2022-12-25T09:59:21.894Z,14.68
2022-12-25T10:02:21.177Z,16.75
2022-12-25T10:05:11.178Z,17.02
2022-12-25T10:07:44.302Z,16.98
2022-12-25T10:10:40.135Z,16.73
2022-12-25T10:13:33.504Z,15.43
2022-12-25T10:16:24.695Z,13.75
2022-12-25T10:19:19.244Z,16.85
2022-12-25T10:21:46.431Z,14.82
2022-12-25T10:24:36.191Z,13.32
2022-12-25T10:27:07.487Z,14.82
2022-12-25T10:29:35.717Z,13.15
2022-12-25T10:32:02.332Z,11.93
2022-12-25T10:34:29.133Z,12.25
2022-12-25T10:36:56.042Z,12.43
2022-12-25T10:39:25.579Z,12.57
2022-12-25T10:42:13.674Z,11.65
2022-12-25T10:44:40.308Z,10.80
2022-12-25T10:47:07.748Z,10.70
2022-12-25T10:49:38.614Z,10.52
2022-12-25T10:52:23.420Z,10.85
2022-12-25T10:54:50.287Z,10.43
2022-12-25T10:57:19.589Z,10.10
2022-12-25T10:59:48.506Z,8.18
2022-12-25T11:02:39.588Z,9.27
2022-12-25T11:05:21.128Z,9.82
2022-12-25T11:07:57.050Z,9.32
2022-12-25T11:10:34.505Z,9.38
2022-12-25T11:13:02.099Z,9.10
2022-12-25T11:15:31.875Z,8.82
2022-12-25T11:17:58.527Z,9.25
2022-12-25T11:20:25.529Z,7.80
2022-12-25T11:22:52.466Z,8.55
2022-12-25T11:25:25.283Z,8.52
2022-12-25T11:28:05.991Z,8.43
2022-12-25T11:30:33.672Z,6.80
2022-12-25T11:33:04.467Z,8.27
2022-12-25T11:35:33.087Z,8.40
2022-12-25T11:38:00.813Z,8.60
2022-12-25T11:40:47.238Z,7.82
2022-12-25T11:43:41.632Z,7.43
2022-12-25T11:46:22.082Z,8.10
2022-12-25T11:48:59.290Z,6.85
2022-12-25T11:51:29.417Z,7.85
2022-12-25T11:53:59.829Z,7.85
2022-12-25T11:56:29.534Z,8.73
2022-12-25T11:59:18.118Z,8.48
2022-12-25T12:02:19.959Z,10.30
2022-12-25T12:04:51.025Z,8.98
2022-12-25T12:07:22.016Z,9.55
2022-12-25T12:10:33.884Z,8.63
2022-12-25T12:13:20.649Z,8.57
2022-12-25T12:15:49.096Z,8.73
2022-12-25T12:18:19.802Z,8.75
2022-12-25T12:21:15.954Z,9.48
2022-12-25T12:23:52.214Z,8.80
2022-12-25T12:26:29.662Z,9.43
2022-12-25T12:29:00.979Z,9.32
2022-12-25T12:31:48.915Z,8.35
2022-12-25T12:34:45.237Z,8.07
2022-12-25T12:37:35.760Z,8.40
2022-12-25T12:40:03.913Z,8.77
2022-12-25T12:42:33.535Z,8.98
2022-12-25T12:45:09.247Z,8.32
2022-12-25T12:47:43.601Z,7.32
2022-12-25T12:50:34.228Z,6.85
2022-12-25T12:53:27.434Z,7.05
2022-12-25T12:55:55.974Z,7.88
2022-12-25T12:58:30.997Z,8.45
2022-12-25T13:01:35.237Z,9.10
2022-12-25T13:04:30.057Z,8.07
2022-12-25T13:07:13.407Z,8.73
2022-12-25T13:10:09.599Z,7.95
2022-12-25T13:12:36.859Z,8.00
2022-12-25T13:15:04.085Z,7.82
2022-12-25T13:17:30.884Z,8.15
2022-12-25T13:19:59.676Z,7.45
2022-12-25T13:22:32.361Z,7.55
2022-12-25T13:25:01.303Z,7.72
2022-12-25T13:27:30.149Z,7.75
2022-12-25T13:29:58.065Z,8.02
2022-12-25T13:32:32.771Z,7.60
2022-12-25T13:35:00.120Z,7.85
2022-12-25T13:37:29.026Z,8.13
2022-12-25T13:39:57.933Z,8.02
2022-12-25T13:42:31.415Z,7.63
2022-12-25T13:45:00.780Z,7.38
2022-12-25T13:47:37.874Z,7.72
2022-12-25T13:50:25.348Z,8.38
2022-12-25T13:52:52.610Z,9.95
2022-12-25T13:55:26.808Z,14.88
2022-12-25T13:58:00.280Z,14.02
2022-12-25T14:00:48.459Z,13.27
2022-12-25T14:03:20.145Z,11.93
2022-12-25T14:05:56.995Z,11.77
2022-12-25T14:08:26.716Z,11.65
2022-12-25T14:10:54.016Z,11.40
2022-12-25T14:13:27.370Z,15.07
2022-12-25T14:15:55.669Z,14.32
2022-12-25T14:18:24.048Z,13.85
2022-12-25T14:21:02.966Z,11.25
2022-12-25T14:23:40.601Z,10.27
2022-12-25T14:26:07.546Z,10.70
2022-12-25T14:28:34.576Z,10.05
2022-12-25T14:31:02.502Z,8.82
2022-12-25T14:33:37.247Z,8.45
2022-12-25T14:36:04.586Z,7.82
2022-12-25T14:38:40.640Z,8.32
2022-12-25T14:41:33.403Z,8.75
2022-12-25T14:44:06.786Z,8.32
2022-12-25T14:46:40.883Z,10.52
2022-12-25T14:49:24.623Z,10.88
2022-12-25T14:51:51.595Z,10.35
2022-12-25T14:54:20.681Z,10.70
2022-12-25T14:56:48.860Z,9.77
2022-12-25T14:59:25.240Z,10.23
2022-12-25T15:01:58.403Z,11.55
2022-12-25T15:04:27.111Z,12.00
2022-12-25T15:07:09.591Z,12.35
2022-12-25T15:09:37.789Z,12.32
2022-12-25T15:12:04.750Z,12.30
2022-12-25T15:14:31.740Z,12.20
2022-12-25T15:17:00.887Z,11.23
2022-12-25T15:19:36.610Z,11.20
2022-12-25T15:22:07.165Z,10.35
2022-12-25T15:24:33.839Z,12.40
2022-12-25T15:27:01.350Z,14.98
2022-12-25T15:30:00.212Z,12.40
2022-12-25T15:32:17.880Z,12.65
2022-12-25T15:34:47.052Z,11.75
2022-12-25T15:37:17.832Z,11.63
2022-12-25T15:39:45.328Z,12.98
2022-12-25T15:42:17.123Z,11.88
2022-12-25T15:44:45.750Z,11.93
2022-12-25T15:47:13.702Z,12.52
2022-12-25T15:49:40.437Z,11.73
2022-12-25T15:52:13.231Z,12.55
2022-12-25T15:54:40.005Z,13.05
2022-12-25T15:57:10.151Z,12.77
2022-12-25T15:59:36.793Z,13.63
2022-12-25T16:02:03.449Z,12.55
2022-12-25T16:04:31.622Z,13.85
2022-12-25T16:06:58.850Z,13.73
2022-12-25T16:09:27.478Z,11.85
2022-12-25T16:11:54.274Z,13.15
2022-12-25T16:14:21.919Z,11.75
2022-12-25T16:16:48.581Z,12.77
2022-12-25T16:19:15.762Z,13.55
2022-12-25T16:21:46.563Z,12.70
2022-12-25T16:24:14.210Z,13.07
2022-12-25T16:26:41.342Z,14.23
2022-12-25T16:29:10.537Z,14.55
2022-12-25T16:31:40.461Z,14.13
2022-12-25T16:34:08.432Z,13.75
2022-12-25T16:36:36.351Z,14.77
2022-12-25T16:39:04.419Z,14.82
2022-12-25T16:41:32.422Z,14.52
2022-12-25T16:43:59.169Z,15.07
2022-12-25T16:46:25.851Z,15.07
2022-12-25T16:48:52.845Z,14.35
2022-12-25T16:51:21.234Z,16.95
2022-12-25T16:53:48.029Z,15.30
2022-12-25T16:56:20.710Z,16.25
2022-12-25T16:58:48.079Z,21.80
2022-12-25T17:01:17.369Z,20.95
2022-12-25T17:03:45.708Z,17.40
2022-12-25T17:06:18.403Z,18.73
2022-12-25T17:08:45.370Z,20.80
2022-12-25T17:11:12.482Z,19.27
2022-12-25T17:13:39.370Z,22.08
2022-12-25T17:16:17.767Z,23.83
2022-12-25T17:18:45.033Z,27.55
2022-12-25T17:21:14.788Z,26.70
2022-12-25T17:23:41.698Z,23.38
2022-12-25T17:26:08.495Z,23.52
2022-12-25T17:28:35.159Z,19.58
2022-12-25T17:31:05.575Z,20.40
2022-12-25T17:33:32.925Z,19.83
2022-12-25T17:36:04.301Z,20.95
2022-12-25T17:38:32.015Z,20.27
2022-12-25T17:41:01.159Z,16.55
2022-12-25T17:43:28.268Z,17.38
2022-12-25T17:45:54.916Z,18.27
2022-12-25T17:48:21.679Z,17.38
2022-12-25T17:50:48.883Z,23.85
2022-12-25T17:53:15.569Z,24.70
2022-12-25T17:55:42.402Z,21.30
2022-12-25T17:58:09.236Z,18.42
2022-12-25T18:00:36.593Z,15.88
2022-12-25T18:03:10.807Z,17.63
2022-12-25T18:05:40.905Z,17.63
2022-12-25T18:08:07.656Z,17.58
2022-12-25T18:10:38.774Z,17.50
2022-12-25T18:13:06.210Z,22.30
2022-12-25T18:15:36.976Z,16.65
2022-12-25T18:18:03.826Z,12.13
2022-12-25T18:20:35.919Z,10.55
2022-12-25T18:23:06.314Z,10.52
2022-12-25T18:25:34.157Z,8.70
2022-12-25T18:28:03.570Z,7.57
2022-12-25T18:30:30.338Z,7.30
2022-12-25T18:32:57.743Z,5.93
2022-12-25T18:35:29.071Z,6.72
2022-12-25T18:37:57.625Z,5.50
2022-12-25T18:40:25.516Z,5.75
2022-12-25T18:42:57.830Z,5.13
2022-12-25T18:45:30.132Z,4.88
2022-12-25T18:47:59.604Z,4.88
2022-12-25T18:50:28.434Z,4.82
2022-12-25T18:52:56.691Z,4.70
2022-12-25T18:55:23.765Z,4.95
2022-12-25T18:57:50.853Z,4.80
2022-12-25T19:00:20.332Z,5.20
2022-12-25T19:02:52.004Z,5.97
2022-12-25T19:05:22.017Z,5.65
2022-12-25T19:07:49.396Z,5.88
2022-12-25T19:10:16.963Z,6.60
2022-12-25T19:12:44.167Z,6.25
2022-12-25T19:15:12.845Z,6.28
2022-12-25T19:17:40.240Z,6.88
2022-12-25T19:20:13.427Z,7.13
2022-12-25T19:22:40.626Z,8.00
2022-12-25T19:25:10.364Z,6.35
2022-12-25T19:27:37.527Z,7.00
2022-12-25T19:30:05.456Z,6.28
2022-12-25T19:32:36.778Z,5.53
2022-12-25T19:35:06.694Z,5.53
2022-12-25T19:37:35.502Z,5.70
2022-12-25T19:40:03.762Z,5.45
2022-12-25T19:42:42.688Z,5.38
2022-12-25T19:45:12.041Z,5.13
2022-12-25T19:47:40.011Z,5.43
2022-12-25T19:50:10.906Z,5.85
2022-12-25T19:52:38.496Z,5.43
2022-12-25T19:55:06.361Z,5.45
2022-12-25T19:57:34.003Z,5.50
2022-12-25T20:00:01.388Z,5.90
2022-12-25T20:02:30.238Z,5.95
2022-12-25T20:04:58.065Z,6.38
2022-12-25T20:07:26.817Z,6.97
2022-12-25T20:09:57.284Z,6.18
2022-12-25T20:12:25.815Z,6.47
2022-12-25T20:14:53.508Z,7.10
2022-12-25T20:17:20.905Z,6.38
2022-12-25T20:19:48.160Z,7.53
2022-12-25T20:22:18.354Z,7.85
2022-12-25T20:24:51.824Z,8.20
2022-12-25T20:27:19.562Z,8.15
2022-12-25T20:29:47.660Z,8.18
2022-12-25T20:32:16.450Z,9.23
2022-12-25T20:34:46.540Z,8.52
2022-12-25T20:37:15.112Z,8.73
2022-12-25T20:39:42.767Z,8.82
2022-12-25T20:42:13.477Z,9.10
2022-12-25T20:44:40.902Z,8.90
2022-12-25T20:47:09.246Z,9.98
2022-12-25T20:49:36.410Z,9.32
2022-12-25T20:52:05.824Z,8.73
2022-12-25T20:54:33.947Z,8.55
2022-12-25T20:57:01.429Z,8.70
2022-12-25T20:59:37.355Z,8.68
2022-12-25T21:02:07.550Z,8.05
2022-12-25T21:04:35.325Z,7.85
2022-12-25T21:07:08.816Z,7.70
2022-12-25T21:09:37.094Z,8.20
2022-12-25T21:12:08.014Z,8.13
2022-12-25T21:14:39.599Z,8.20
2022-12-25T21:17:08.895Z,8.45
2022-12-25T21:19:36.332Z,8.40
2022-12-25T21:22:03.697Z,8.30
2022-12-25T21:24:31.295Z,8.93
2022-12-25T21:27:01.602Z,7.88
2022-12-25T21:29:28.971Z,7.75
2022-12-25T21:32:17.630Z,7.05
2022-12-25T21:34:46.323Z,9.18
2022-12-25T21:37:13.391Z,7.22
2022-12-25T21:39:40.212Z,7.38
2022-12-25T21:42:15.934Z,7.50
2022-12-25T21:44:42.791Z,7.03
2022-12-25T21:47:09.705Z,7.32
2022-12-25T21:49:54.870Z,6.88
2022-12-25T21:52:22.273Z,6.82
2022-12-25T21:54:51.892Z,6.78
2022-12-25T21:57:19.102Z,6.78
2022-12-25T21:59:45.974Z,7.57
2022-12-25T22:02:12.860Z,6.80
2022-12-25T22:04:42.837Z,7.10
2022-12-25T22:07:19.707Z,7.07
2022-12-25T22:09:51.698Z,7.03
2022-12-25T22:12:41.452Z,7.32
2022-12-25T22:15:10.493Z,7.43
2022-12-25T22:17:59.300Z,6.63
2022-12-25T22:20:30.855Z,6.28
2022-12-25T22:22:58.429Z,6.43
2022-12-25T22:25:25.625Z,6.93
2022-12-25T22:27:52.943Z,6.47
2022-12-25T22:30:22.294Z,6.53
2022-12-25T22:32:49.542Z,6.93
2022-12-25T22:35:16.961Z,7.30
2022-12-25T22:37:47.735Z,7.22
2022-12-25T22:40:17.196Z,7.90
2022-12-25T22:42:44.232Z,7.57
2022-12-25T22:45:12.677Z,7.50
2022-12-25T22:47:40.242Z,7.65
2022-12-25T22:50:07.746Z,6.40
2022-12-25T22:52:34.524Z,6.43
2022-12-25T22:55:02.353Z,6.70
2022-12-25T22:57:29.269Z,6.35
2022-12-25T22:59:55.940Z,6.13
2022-12-25T23:02:22.778Z,5.93
2022-12-25T23:04:50.191Z,6.50
2022-12-25T23:07:17.617Z,6.07
2022-12-25T23:09:45.667Z,5.72
2022-12-25T23:12:33.256Z,5.82
2022-12-25T23:15:03.426Z,5.45
2022-12-25T23:17:51.233Z,5.75
2022-12-25T23:20:36.779Z,5.72
2022-12-25T23:23:22.509Z,5.68
2022-12-25T23:26:10.867Z,5.28
2022-12-25T23:28:59.054Z,5.88
2022-12-25T23:31:36.871Z,5.03
2022-12-25T23:34:04.965Z,4.22
2022-12-25T23:36:32.158Z,4.82
2022-12-25T23:39:04.874Z,4.70
2022-12-25T23:41:35.579Z,5.07
2022-12-25T23:44:02.348Z,4.90
2022-12-25T23:46:29.028Z,5.55
2022-12-25T23:48:55.703Z,4.72
2022-12-25T23:51:22.360Z,5.28
2022-12-25T23:53:49.051Z,5.20
2022-12-25T23:56:15.801Z,4.55
2022-12-25T23:58:45.568Z,5.07
